Time;durP1;ratioP1;P1;durP2;ratioP2;P2;SDS_P1;SDS_P2;PMS_P1;PMS_P2;Temp;Humidity;BMP_temperature;BMP_pressure;BME280_temperature;BME280_humidity;BME280_pressure;Samples;Min_cycle;Max_cycle;Signal;HPM_P1;HPM_P2
2022/09/22 00:00:15;;;;;;;3.17;1.40;;;7.30;99.90;;;8.26;100.00;98911.00;5021027;28;20502;-89
2022/09/22 00:02:43;;;;;;;2.37;1.93;;;7.40;99.90;;;8.26;100.00;98905.81;5022867;28;20567;-89
2022/09/22 00:05:13;;;;;;;1.77;1.67;;;7.30;99.90;;;8.12;100.00;98904.56;5023215;28;20470;-89
2022/09/22 00:07:43;;;;;;;2.43;1.57;;;7.20;99.90;;;8.12;100.00;98914.97;5030903;28;20478;-89
2022/09/22 00:10:13;;;;;;;4.23;1.90;;;7.20;99.90;;;8.10;100.00;98911.69;5027707;28;20457;-89
2022/09/22 00:12:42;;;;;;;1.90;1.60;;;7.30;99.90;;;8.03;100.00;98908.03;5030011;28;20503;-88
2022/09/22 00:15:11;;;;;;;1.80;1.57;;;7.20;99.90;;;8.04;100.00;98901.88;5025418;28;20462;-88
2022/09/22 00:17:40;;;;;;;3.30;1.80;;;7.20;99.90;;;8.04;100.00;98907.91;5025832;28;20565;-88
2022/09/22 00:20:12;;;;;;;1.50;1.40;;;7.20;99.90;;;8.03;100.00;98905.44;5026616;28;20537;-88
2022/09/22 00:22:42;;;;;;;2.30;1.67;;;7.10;99.90;;;8.06;100.00;98907.75;5028539;28;20525;-89
2022/09/22 00:25:11;;;;;;;3.00;1.50;;;7.20;99.90;;;8.07;100.00;98917.19;5030243;28;20450;-90
2022/09/22 00:27:40;;;;;;;1.97;1.40;;;7.20;99.90;;;8.04;100.00;98912.28;5018755;28;20462;-89
2022/09/22 00:30:11;;;;;;;3.47;1.60;;;7.20;99.90;;;7.93;100.00;98907.31;5029069;28;20501;-89
2022/09/22 00:32:41;;;;;;;11.43;1.83;;;7.10;99.90;;;7.90;100.00;98910.22;5023272;28;20465;-89
2022/09/22 00:35:12;;;;;;;1.60;1.50;;;7.00;99.90;;;7.95;100.00;98913.16;5022719;28;20469;-89
2022/09/22 00:37:41;;;;;;;1.70;1.60;;;7.00;99.90;;;7.99;100.00;98907.53;5025771;28;20455;-89
2022/09/22 00:40:10;;;;;;;2.33;1.50;;;7.10;99.90;;;7.84;100.00;98911.63;5020911;28;20888;-90
2022/09/22 00:42:42;;;;;;;4.80;1.70;;;7.00;99.90;;;7.76;100.00;98913.31;5027533;28;20450;-89
2022/09/22 00:45:15;;;;;;;15.07;1.60;;;6.90;99.90;;;7.82;100.00;98907.50;5025870;28;20454;-89
2022/09/22 00:47:47;;;;;;;2.40;1.47;;;7.00;99.90;;;7.76;100.00;98903.72;5026200;28;20522;-89
2022/09/22 00:50:24;;;;;;;3.77;1.70;;;7.00;99.90;;;7.79;100.00;98905.22;5022892;28;20553;-89
2022/09/22 00:53:00;;;;;;;2.10;1.53;;;6.90;99.90;;;7.72;100.00;98901.56;5027289;28;20988;-89
2022/09/22 00:55:40;;;;;;;3.73;1.70;;;6.80;99.90;;;7.66;100.00;98895.19;5025019;28;20511;-89
2022/09/22 00:58:15;;;;;;;1.93;1.53;;;6.90;99.90;;;7.66;100.00;98896.94;5025859;28;21075;-89
2022/09/22 01:00:45;;;;;;;1.63;1.50;;;6.90;99.90;;;7.67;100.00;98903.81;5025646;28;20489;-89
2022/09/22 01:03:20;;;;;;;2.37;1.40;;;6.90;99.90;;;7.63;100.00;98902.47;5026424;28;20488;-89
2022/09/22 01:05:58;;;;;;;4.43;1.40;;;6.90;99.90;;;7.66;100.00;98899.56;5025409;28;20572;-89
2022/09/22 01:08:32;;;;;;;1.40;1.30;;;6.80;99.90;;;7.64;100.00;98898.88;5027482;28;20592;-89
2022/09/22 01:11:02;;;;;;;2.40;1.73;;;6.70;99.90;;;7.56;100.00;98897.84;5026625;28;20860;-89
2022/09/22 01:13:41;;;;;;;3.10;1.70;;;6.70;99.90;;;7.60;100.00;98891.34;5023823;28;20465;-89
2022/09/22 01:16:44;;;;;;;1.97;1.53;;;6.60;99.90;;;7.62;100.00;98890.41;5026500;28;20481;-89
2022/09/22 01:20:24;;;;;;;2.43;1.50;;;6.70;99.90;;;7.57;100.00;98888.22;5026234;28;20541;-89
2022/09/22 01:23:41;;;;;;;2.90;1.50;;;6.70;99.90;;;7.48;100.00;98895.16;5027523;28;21917;-89
2022/09/22 01:26:52;;;;;;;1.93;1.40;;;6.60;99.90;;;7.54;100.00;98894.56;5025691;28;20464;-89
2022/09/22 01:30:08;;;;;;;6.63;1.40;;;6.60;99.90;;;7.51;100.00;98889.66;5025023;28;20578;-89
2022/09/22 01:32:49;;;;;;;1.63;1.50;;;6.60;99.90;;;7.51;100.00;98888.81;5027338;28;20549;-90
2022/09/22 01:35:27;;;;;;;2.20;1.50;;;6.50;99.90;;;7.50;100.00;98887.19;5022178;28;20457;-89
2022/09/22 01:38:09;;;;;;;1.50;1.40;;;6.50;99.90;;;7.48;100.00;98892.53;5021852;28;20550;-89
2022/09/22 01:40:50;;;;;;;1.70;1.23;;;6.50;99.90;;;7.36;100.00;98893.69;5023487;28;20470;-89
2022/09/22 01:43:37;;;;;;;5.00;1.73;;;6.50;99.90;;;7.35;100.00;98883.47;5027349;28;20984;-88
2022/09/22 01:46:12;;;;;;;2.50;1.67;;;6.60;99.90;;;7.30;100.00;98886.47;5024373;28;20470;-89
2022/09/22 01:48:49;;;;;;;5.33;1.87;;;6.50;99.90;;;7.22;100.00;98883.78;5028107;28;20582;-89
2022/09/22 01:51:26;;;;;;;1.70;1.50;;;6.50;99.90;;;7.23;100.00;98882.00;5025274;28;20549;-89
2022/09/22 01:54:01;;;;;;;4.00;1.47;;;6.50;99.90;;;7.20;100.00;98882.28;5025980;28;20488;-90
2022/09/22 01:56:33;;;;;;;2.60;1.80;;;6.30;99.90;;;7.14;100.00;98875.91;5023908;28;20572;-88
2022/09/22 01:59:07;;;;;;;2.57;1.53;;;6.30;99.90;;;7.13;100.00;98882.06;5021835;28;20550;-89
2022/09/22 02:01:44;;;;;;;2.33;1.90;;;6.30;99.90;;;7.04;100.00;98886.34;5022641;28;20468;-89
2022/09/22 02:04:23;;;;;;;7.73;2.17;;;6.40;99.90;;;7.05;100.00;98882.78;5027139;28;20466;-90
2022/09/22 02:07:00;;;;;;;2.07;1.60;;;6.30;99.90;;;6.94;100.00;98882.16;5023371;28;20850;-90
2022/09/22 02:09:33;;;;;;;4.77;1.90;;;6.10;99.90;;;6.96;100.00;98875.03;5022685;28;20595;-88
2022/09/22 02:12:04;;;;;;;1.77;1.47;;;6.20;99.90;;;7.03;100.00;98879.50;5020019;28;20567;-89
2022/09/22 02:14:33;;;;;;;2.87;1.57;;;6.10;99.90;;;6.97;100.00;98871.47;5023944;28;20560;-89
2022/09/22 02:17:02;;;;;;;4.60;1.20;;;6.10;99.90;;;6.91;100.00;98874.63;5024501;28;20466;-89
2022/09/22 02:19:38;;;;;;;2.17;1.70;;;6.20;99.90;;;6.87;100.00;98874.09;5028119;28;20586;-89
2022/09/22 02:22:10;;;;;;;2.20;1.33;;;6.10;99.90;;;6.88;100.00;98869.72;5023194;28;20572;-89
2022/09/22 02:24:42;;;;;;;3.23;1.77;;;6.00;99.90;;;6.81;100.00;98868.66;5026952;28;20563;-88
2022/09/22 02:27:19;;;;;;;1.37;1.27;;;6.00;99.90;;;6.81;100.00;98863.44;5027918;28;20548;-90
2022/09/22 02:29:56;;;;;;;1.87;1.70;;;6.00;99.90;;;6.78;100.00;98864.56;5025017;28;21112;-89
2022/09/22 02:32:27;;;;;;;1.40;1.30;;;6.10;99.90;;;6.73;100.00;98861.59;5029989;28;20486;-89
2022/09/22 02:35:00;;;;;;;2.60;1.47;;;6.10;99.90;;;6.80;100.00;98861.84;5028548;28;20454;-88
2022/09/22 02:37:40;;;;;;;1.87;1.50;;;6.10;99.90;;;6.88;100.00;98862.75;5026418;28;20462;-89
2022/09/22 02:40:22;;;;;;;2.03;1.83;;;6.10;99.90;;;6.88;100.00;98864.50;5031899;28;20897;-89
2022/09/22 02:43:02;;;;;;;2.67;1.27;;;6.10;99.90;;;6.84;100.00;98860.56;5024917;28;20463;-90
2022/09/22 02:45:40;;;;;;;1.50;1.30;;;6.00;99.90;;;6.75;100.00;98859.66;5028056;28;20498;-90
2022/09/22 02:48:18;;;;;;;1.50;1.40;;;6.00;99.90;;;6.75;100.00;98858.81;5022918;28;20465;-90
2022/09/22 02:50:48;;;;;;;1.43;1.33;;;5.80;99.90;;;6.75;100.00;98857.06;5028460;28;20957;-89
2022/09/22 02:53:18;;;;;;;1.37;1.20;;;5.90;99.90;;;6.73;100.00;98850.38;5024200;28;21202;-88
2022/09/22 02:55:48;;;;;;;5.33;1.70;;;5.90;99.90;;;6.61;100.00;98851.50;5026651;28;20553;-88
2022/09/22 02:58:18;;;;;;;5.43;1.73;;;5.70;99.90;;;6.64;100.00;98853.81;5022628;28;20500;-87
2022/09/22 03:00:47;;;;;;;2.13;1.50;;;5.80;99.90;;;6.62;100.00;98850.53;5024185;28;20960;-88
2022/09/22 03:03:16;;;;;;;3.00;1.20;;;6.00;99.90;;;6.59;100.00;98844.66;5027079;28;20489;-87
2022/09/22 03:05:47;;;;;;;2.10;1.47;;;5.80;99.90;;;6.59;100.00;98844.66;5025595;28;20532;-89
2022/09/22 03:08:18;;;;;;;1.00;0.90;;;5.70;99.90;;;6.59;100.00;98842.06;5029355;28;20469;-89
2022/09/22 03:10:47;;;;;;;10.40;1.30;;;5.80;99.90;;;6.64;100.00;98840.81;5024347;28;21051;-89
2022/09/22 03:13:22;;;;;;;2.00;1.53;;;5.80;99.90;;;6.67;100.00;98843.13;5027467;28;20482;-89
2022/09/22 03:15:51;;;;;;;2.43;1.93;;;5.80;99.90;;;6.58;100.00;98837.00;5022910;28;20561;-89
2022/09/22 03:18:20;;;;;;;5.33;1.40;;;5.60;99.90;;;6.62;100.00;98842.75;5025274;28;20462;-90
2022/09/22 03:20:50;;;;;;;2.60;1.70;;;5.60;99.90;;;6.60;100.00;98840.28;5021376;28;20501;-89
2022/09/22 03:23:19;;;;;;;1.70;1.40;;;5.70;99.90;;;6.59;100.00;98838.66;5026096;28;20611;-89
2022/09/22 03:25:48;;;;;;;9.10;1.60;;;5.70;99.90;;;6.60;100.00;98832.47;5025384;28;20464;-89
2022/09/22 03:28:18;;;;;;;1.37;1.27;;;5.80;99.90;;;6.64;100.00;98830.41;5024223;28;20461;-88
2022/09/22 03:30:48;;;;;;;1.70;1.40;;;5.70;99.90;;;6.61;100.00;98830.72;5024635;28;20481;-89
2022/09/22 03:33:18;;;;;;;1.17;1.07;;;5.60;99.90;;;6.58;100.00;98831.81;5025467;28;20936;-90
2022/09/22 03:35:49;;;;;;;1.60;1.43;;;5.80;99.90;;;6.55;100.00;98825.13;5024738;28;20496;-89
2022/09/22 03:38:18;;;;;;;1.80;1.43;;;5.70;99.90;;;6.52;100.00;98825.41;5021940;28;20496;-88
2022/09/22 03:40:51;;;;;;;4.07;1.70;;;5.80;99.90;;;6.56;100.00;98826.75;5025476;28;20822;-88
2022/09/22 03:43:20;;;;;;;1.50;1.40;;;5.70;99.90;;;6.50;100.00;98832.53;5025274;28;20560;-89
2022/09/22 03:45:48;;;;;;;1.67;1.57;;;5.70;99.90;;;6.48;100.00;98825.84;5041560;28;20824;-88
2022/09/22 03:48:17;;;;;;;3.10;1.30;;;5.70;99.90;;;6.47;100.00;98831.97;5028134;28;20499;-89
2022/09/22 03:50:46;;;;;;;1.93;1.40;;;5.70;99.90;;;6.47;100.00;98827.63;5025131;28;20530;-89
2022/09/22 03:53:17;;;;;;;3.30;1.57;;;5.60;99.90;;;6.43;100.00;98828.03;5024488;28;20537;-89
2022/09/22 03:55:47;;;;;;;3.53;1.40;;;5.50;99.90;;;6.42;100.00;98826.41;5025166;28;20529;-88
2022/09/22 03:58:18;;;;;;;1.50;1.40;;;5.40;99.90;;;6.45;100.00;98826.13;5022689;28;20546;-89
2022/09/22 04:00:49;;;;;;;2.27;1.23;;;5.50;99.90;;;6.41;100.00;98823.00;5024734;28;20559;-89
2022/09/22 04:03:17;;;;;;;3.23;1.63;;;5.60;99.90;;;6.37;100.00;98824.22;5023797;28;20588;-88
2022/09/22 04:05:50;;;;;;;5.90;1.77;;;5.60;99.90;;;6.32;100.00;98821.22;5022425;28;20502;-88
2022/09/22 04:08:22;;;;;;;1.23;1.13;;;5.50;99.90;;;6.33;100.00;98819.44;5024174;28;20488;-89
2022/09/22 04:10:56;;;;;;;2.27;1.70;;;5.60;99.90;;;6.23;100.00;98821.25;5023938;28;20586;-89
2022/09/22 04:13:25;;;;;;;1.63;1.50;;;5.40;99.90;;;6.27;100.00;98815.66;5026011;28;20483;-88
2022/09/22 04:15:54;;;;;;;2.13;1.53;;;5.50;99.90;;;6.27;100.00;98813.06;5024992;28;20452;-89
2022/09/22 04:18:24;;;;;;;5.43;1.87;;;5.50;99.90;;;6.28;100.00;98817.25;5027953;28;20504;-88
2022/09/22 04:20:58;;;;;;;1.90;1.63;;;5.40;99.90;;;6.27;100.00;98818.25;5025706;28;20509;-88
2022/09/22 04:23:28;;;;;;;2.80;1.80;;;5.30;99.90;;;6.25;100.00;98821.94;5024329;28;20545;-89
2022/09/22 04:26:00;;;;;;;4.10;1.50;;;5.40;99.90;;;6.23;100.00;98816.88;5023054;28;20458;-89
2022/09/22 04:28:29;;;;;;;1.83;1.60;;;5.40;99.90;;;6.21;100.00;98813.63;5023572;28;20448;-89
2022/09/22 04:31:00;;;;;;;2.70;1.50;;;5.30;99.90;;;6.17;100.00;98817.44;5025901;28;21054;-89
2022/09/22 04:33:29;;;;;;;3.83;1.37;;;5.20;99.90;;;6.14;100.00;98822.94;5023907;28;20466;-89
2022/09/22 04:35:57;;;;;;;1.67;1.47;;;5.20;99.90;;;6.10;100.00;98824.16;5022924;28;20577;-88
2022/09/22 04:38:29;;;;;;;1.70;1.60;;;5.10;99.90;;;6.10;100.00;98821.56;5021561;28;20500;-89
2022/09/22 04:40:58;;;;;;;1.53;1.43;;;5.20;99.90;;;6.12;100.00;98819.63;5018945;28;20542;-88
2022/09/22 04:43:27;;;;;;;7.50;1.50;;;5.20;99.90;;;6.15;100.00;98811.56;5027587;28;20905;-89
2022/09/22 04:45:55;;;;;;;2.90;1.43;;;5.20;99.90;;;6.17;100.00;98806.25;5023507;28;20470;-89
2022/09/22 04:48:24;;;;;;;1.27;1.03;;;5.20;99.90;;;6.14;100.00;98822.09;5022797;28;20464;-90
2022/09/22 04:50:52;;;;;;;1.73;1.63;;;5.30;99.90;;;6.11;100.00;98818.00;5019245;28;20502;-88
2022/09/22 04:53:21;;;;;;;2.80;1.57;;;5.20;99.90;;;6.09;100.00;98819.91;5023694;28;21028;-88
2022/09/22 04:55:51;;;;;;;1.40;1.30;;;5.10;99.90;;;6.13;100.00;98820.47;5025350;28;20875;-88
2022/09/22 04:58:21;;;;;;;1.83;1.70;;;5.10;99.90;;;6.11;100.00;98825.78;5023932;28;20455;-89
2022/09/22 05:00:49;;;;;;;2.30;1.87;;;5.10;99.90;;;6.12;100.00;98818.81;5022699;28;20539;-89
2022/09/22 05:03:18;;;;;;;3.73;1.70;;;5.20;99.90;;;6.11;100.00;98823.19;5026890;28;21109;-88
2022/09/22 05:05:50;;;;;;;1.23;1.13;;;5.20;99.90;;;6.02;100.00;98826.63;5023055;28;20485;-88
2022/09/22 05:08:20;;;;;;;1.60;1.30;;;5.10;99.90;;;5.90;100.00;98828.53;5022754;28;20491;-89
2022/09/22 05:10:50;;;;;;;2.53;1.57;;;4.90;99.90;;;5.80;100.00;98824.28;5024381;28;20479;-90
2022/09/22 05:13:20;;;;;;;2.47;1.83;;;4.80;99.90;;;5.85;100.00;98822.09;5025324;28;20548;-89
2022/09/22 05:15:49;;;;;;;1.90;1.20;;;4.90;99.90;;;5.83;100.00;98824.03;5025620;28;20503;-89
2022/09/22 05:18:17;;;;;;;1.30;1.20;;;4.80;99.90;;;5.85;100.00;98833.31;5026488;28;21014;-89
2022/09/22 05:20:46;;;;;;;1.37;1.27;;;4.90;99.90;;;5.83;100.00;98834.41;5025570;28;20641;-87
2022/09/22 05:23:15;;;;;;;1.43;1.33;;;5.00;99.90;;;5.81;100.00;98831.13;5025063;28;20550;-89
2022/09/22 05:25:44;;;;;;;2.83;1.87;;;5.00;99.90;;;5.78;100.00;98832.22;5022691;28;20905;-88
2022/09/22 05:28:14;;;;;;;2.30;1.33;;;5.00;99.90;;;5.77;100.00;98837.53;5024627;28;20505;-89
2022/09/22 05:30:43;;;;;;;2.33;1.50;;;4.90;99.90;;;5.77;100.00;98837.53;5020253;28;20489;-89
2022/09/22 05:33:14;;;;;;;1.50;1.40;;;4.90;99.90;;;5.75;100.00;98836.88;5024344;28;20457;-89
2022/09/22 05:35:43;;;;;;;1.80;1.53;;;5.10;99.90;;;5.69;100.00;98827.88;5023581;28;20457;-89
2022/09/22 05:38:11;;;;;;;2.50;1.73;;;4.80;99.90;;;5.73;100.00;98831.78;5022102;28;20470;-89
2022/09/22 05:40:41;;;;;;;13.23;1.90;;;4.90;99.90;;;5.77;100.00;98835.75;5023495;28;20490;-89
2022/09/22 05:43:11;;;;;;;2.33;1.67;;;4.90;99.90;;;5.78;100.00;98827.03;5021554;28;20512;-89
2022/09/22 05:45:42;;;;;;;2.50;1.53;;;4.90;99.90;;;5.78;100.00;98829.63;5023892;28;20464;-88
2022/09/22 05:48:12;;;;;;;1.50;1.37;;;5.00;99.90;;;5.76;100.00;98828.13;5025738;28;20442;-89
2022/09/22 05:50:41;;;;;;;1.83;1.73;;;5.00;99.90;;;5.77;100.00;98825.38;5022850;28;20454;-88
2022/09/22 05:53:11;;;;;;;2.00;1.80;;;4.90;99.90;;;5.74;100.00;98836.03;5024434;28;20497;-88
2022/09/22 05:55:41;;;;;;;4.77;1.70;;;4.90;99.90;;;5.77;100.00;98834.94;5027500;28;20469;-89
2022/09/22 05:58:11;;;;;;;5.33;1.80;;;5.00;99.90;;;5.79;100.00;98828.69;5026766;28;20468;-87
2022/09/22 06:00:42;;;;;;;3.10;1.90;;;5.00;99.90;;;5.79;100.00;98838.22;5021338;28;20474;-87
2022/09/22 06:03:12;;;;;;;1.77;1.67;;;5.10;99.90;;;5.80;100.00;98834.66;5024379;28;20896;-87
2022/09/22 06:05:41;;;;;;;2.90;1.80;;;5.10;99.90;;;5.86;100.00;98829.81;5024083;28;20484;-86
2022/09/22 06:08:10;;;;;;;5.07;2.10;;;5.10;99.90;;;5.93;100.00;98835.25;5024328;28;20502;-86
2022/09/22 06:10:40;;;;;;;1.70;1.60;;;5.20;99.90;;;5.94;100.00;98835.09;5019845;28;20498;-87
2022/09/22 06:13:11;;;;;;;3.00;2.13;;;5.20;99.90;;;5.99;100.00;98835.50;5025223;28;20867;-88
2022/09/22 06:15:46;;;;;;;5.30;2.13;;;5.30;99.90;;;6.05;100.00;98834.94;5024034;28;20961;-87
2022/09/22 06:18:17;;;;;;;12.33;2.63;;;5.20;99.90;;;6.13;100.00;98831.66;5023823;28;20472;-87
2022/09/22 06:20:55;;;;;;;6.17;2.33;;;5.30;99.90;;;6.14;100.00;98838.50;5024241;28;20467;-87
2022/09/22 06:23:25;;;;;;;2.50;2.10;;;5.40;99.90;;;6.12;100.00;98835.22;5025654;28;20454;-87
2022/09/22 06:25:58;;;;;;;4.40;1.87;;;5.40;99.90;;;6.14;100.00;98835.09;5022426;28;20994;-87
2022/09/22 06:28:27;;;;;;;2.50;2.03;;;5.40;99.90;;;6.14;100.00;98829.91;5027460;28;20554;-87
2022/09/22 06:31:00;;;;;;;2.70;2.13;;;5.50;99.90;;;6.24;100.00;98838.47;5023075;28;20912;-87
2022/09/22 06:33:30;;;;;;;5.10;2.40;;;5.50;99.90;;;6.29;100.00;98826.69;5025267;28;20478;-88
2022/09/22 06:36:00;;;;;;;2.10;1.90;;;5.50;99.90;;;6.36;100.00;98832.16;5023354;28;20554;-87
2022/09/22 06:38:31;;;;;;;3.30;2.37;;;5.50;99.90;;;6.40;100.00;98831.72;5020618;28;21054;-86
2022/09/22 06:41:03;;;;;;;5.27;2.27;;;5.50;99.90;;;6.41;100.00;98820.41;5023866;28;20468;-89
2022/09/22 06:43:33;;;;;;;5.87;4.13;;;5.50;99.90;;;6.41;100.00;98830.78;5023244;28;20470;-87
2022/09/22 06:46:04;;;;;;;4.40;2.60;;;5.50;99.90;;;6.48;100.00;98826.66;5023513;28;20599;-88
2022/09/22 06:48:33;;;;;;;2.17;1.97;;;5.60;99.90;;;6.51;100.00;98833.34;5022780;28;20826;-87
2022/09/22 06:51:01;;;;;;;6.20;2.13;;;5.60;99.90;;;6.54;100.00;98830.47;5018216;28;20875;-86
2022/09/22 06:53:30;;;;;;;4.83;3.17;;;5.60;99.90;;;6.58;100.00;98834.41;5020496;28;20472;-84
2022/09/22 06:56:00;;;;;;;2.73;2.43;;;5.70;99.90;;;6.61;100.00;98831.53;5022671;28;20569;-86
2022/09/22 06:58:31;;;;;;;3.20;2.50;;;5.80;99.90;;;6.68;100.00;98831.78;5023900;28;20475;-87
2022/09/22 07:01:21;;;;;;;5.40;2.53;;;5.80;99.90;;;6.66;100.00;98823.31;5026819;28;20438;-88
2022/09/22 07:03:51;;;;;;;3.53;2.23;;;5.90;99.90;;;6.69;100.00;98818.66;5025145;28;20933;-88
2022/09/22 07:06:20;;;;;;;2.47;1.90;;;5.80;99.90;;;6.74;100.00;98820.78;5025338;28;20482;-87
2022/09/22 07:08:49;;;;;;;3.83;2.70;;;5.90;99.90;;;6.78;100.00;98819.56;5026071;28;20462;-88
2022/09/22 07:11:22;;;;;;;5.93;2.60;;;5.90;99.90;;;6.80;100.00;98817.66;5025529;28;20560;-88
2022/09/22 07:13:53;;;;;;;3.33;2.33;;;5.90;99.90;;;6.83;100.00;98812.16;5026655;28;20500;-88
2022/09/22 07:16:26;;;;;;;2.40;2.07;;;6.00;99.90;;;6.87;100.00;98816.09;5024945;28;21022;-87
2022/09/22 07:18:58;;;;;;;2.20;2.00;;;6.00;99.90;;;6.96;100.00;98810.03;5023201;28;20472;-88
2022/09/22 07:21:31;;;;;;;3.77;2.13;;;6.10;99.90;;;7.01;100.00;98821.63;5025103;28;21094;-88
2022/09/22 07:24:02;;;;;;;5.63;2.50;;;6.20;99.90;;;7.07;100.00;98817.63;5020859;28;20459;-88
2022/09/22 07:26:34;;;;;;;2.37;2.10;;;6.20;99.90;;;7.18;100.00;98817.44;5025084;28;20542;-87
2022/09/22 07:29:06;;;;;;;4.73;2.50;;;6.30;99.90;;;7.22;100.00;98829.16;5024052;28;20508;-89
2022/09/22 07:31:38;;;;;;;6.70;2.07;;;6.30;99.90;;;7.26;100.00;98824.47;5024935;28;20515;-88
2022/09/22 07:34:06;;;;;;;4.00;2.57;;;6.40;99.90;;;7.30;100.00;98829.25;5022766;28;20445;-87
2022/09/22 07:36:38;;;;;;;5.10;2.43;;;6.40;99.90;;;7.32;100.00;98834.31;5028642;28;20450;-88
2022/09/22 07:39:09;;;;;;;4.43;1.90;;;6.40;99.90;;;7.38;100.00;98834.56;5025876;28;20565;-88
2022/09/22 07:41:42;;;;;;;4.73;2.20;;;6.50;99.90;;;7.43;100.00;98834.91;5023887;28;20461;-88
2022/09/22 07:47:03;;;;;;;8.63;2.57;;;6.70;99.90;;;7.52;100.00;98828.84;5023731;28;20988;-88
2022/09/22 07:49:32;;;;;;;4.77;2.23;;;6.70;99.90;;;7.58;100.00;98817.00;5022989;28;20470;-87
2022/09/22 07:52:02;;;;;;;7.77;2.60;;;6.80;99.90;;;7.64;100.00;98824.22;5024361;28;20490;-86
2022/09/22 07:54:33;;;;;;;2.90;1.80;;;6.90;99.90;;;7.69;100.00;98808.16;5023199;28;20525;-87
2022/09/22 07:57:08;;;;;;;3.60;2.60;;;6.90;99.90;;;7.73;100.00;98809.50;5025085;28;20476;-88
2022/09/22 07:59:38;;;;;;;5.93;2.60;;;6.90;99.90;;;7.80;100.00;98802.72;5025051;28;20472;-87
2022/09/22 08:02:10;;;;;;;4.83;2.23;;;7.00;99.90;;;7.87;100.00;98803.75;5020100;28;20465;-90
2022/09/22 08:04:39;;;;;;;5.67;3.43;;;7.00;99.90;;;7.94;100.00;98807.38;5020325;28;20480;-87
2022/09/22 08:07:09;;;;;;;3.30;2.63;;;7.10;99.90;;;8.03;100.00;98803.88;5020772;28;20491;-87
2022/09/22 08:09:37;;;;;;;2.40;1.90;;;7.20;99.90;;;8.10;100.00;98799.69;5023844;28;20537;-86
2022/09/22 08:12:10;;;;;;;6.80;2.20;;;7.30;99.90;;;8.18;100.00;98796.31;5019711;28;20610;-86
2022/09/22 08:14:40;;;;;;;4.70;2.20;;;7.40;99.90;;;8.25;100.00;98799.94;5018698;28;20502;-88
2022/09/22 08:17:11;;;;;;;3.93;2.40;;;7.40;99.90;;;8.31;100.00;98794.97;5019806;28;20502;-88
2022/09/22 08:19:40;;;;;;;2.87;2.13;;;7.50;99.90;;;8.38;100.00;98806.41;5020750;28;20994;-87
2022/09/22 08:22:11;;;;;;;2.40;2.07;;;7.50;99.90;;;8.45;100.00;98802.22;5018456;28;20463;-88
2022/09/22 08:24:44;;;;;;;4.63;3.23;;;7.60;99.90;;;8.51;100.00;98798.16;5022200;28;20576;-86
2022/09/22 08:27:13;;;;;;;4.40;2.13;;;7.70;99.90;;;8.61;100.00;98801.47;5020308;28;20544;-87
2022/09/22 08:29:43;;;;;;;5.87;2.73;;;7.80;99.90;;;8.68;100.00;98792.03;5019222;28;20570;-87
2022/09/22 08:32:16;;;;;;;6.30;2.00;;;7.90;99.90;;;8.77;100.00;98800.72;5020856;28;20509;-87
2022/09/22 08:34:45;;;;;;;4.57;2.60;;;8.00;99.90;;;8.85;100.00;98798.97;5021884;28;20551;-87
2022/09/22 08:37:13;;;;;;;6.80;2.40;;;8.00;99.90;;;8.93;100.00;98791.19;5018885;28;20546;-86
2022/09/22 08:39:43;;;;;;;5.70;2.30;;;8.20;99.90;;;9.01;100.00;98793.00;5018016;28;20474;-87
2022/09/22 08:42:20;;;;;;;10.83;2.30;;;8.20;99.90;;;9.09;100.00;98796.44;5022602;28;20462;-87
2022/09/22 08:45:02;;;;;;;4.70;2.50;;;8.20;99.90;;;9.21;100.00;98788.31;5023336;28;20461;-86
2022/09/22 08:53:33;;;;;;;12.00;5.93;;;8.70;99.90;;;9.50;100.00;98786.91;5019610;28;21062;-86
2022/09/22 08:56:15;;;;;;;5.33;2.30;;;8.80;99.90;;;9.60;100.00;98787.56;5021190;28;20550;-87
2022/09/22 08:58:57;;;;;;;2.93;1.90;;;8.90;99.90;;;9.72;100.00;98782.81;5020849;28;20909;-87
2022/09/22 09:01:50;;;;;;;3.87;2.10;;;9.10;99.90;;;9.81;100.00;98775.81;5021063;28;20462;-87
2022/09/22 09:05:03;;;;;;;1.50;1.20;;;9.10;99.90;;;9.93;100.00;98774.47;5019715;28;20477;-87
2022/09/22 09:07:49;;;;;;;2.87;2.03;;;9.30;99.90;;;10.03;100.00;98775.16;5018845;28;20556;-87
2022/09/22 09:10:42;;;;;;;1.87;1.40;;;9.40;99.90;;;10.11;100.00;98777.72;5022730;28;20536;-87
2022/09/22 09:13:42;;;;;;;1.70;1.40;;;9.50;99.90;;;10.22;100.00;98779.22;5021188;28;20498;-87
2022/09/22 09:16:38;;;;;;;1.87;1.67;;;9.60;99.90;;;10.30;100.00;98772.19;5021202;28;20505;-88
2022/09/22 09:19:18;;;;;;;1.80;1.50;;;9.60;99.90;;;10.42;100.00;98767.41;5020221;28;20485;-87
2022/09/22 09:21:54;;;;;;;1.70;1.57;;;9.80;99.90;;;10.51;100.00;98766.41;5023862;28;20493;-88
2022/09/22 09:24:32;;;;;;;3.83;1.70;;;9.90;99.90;;;10.60;100.00;98768.00;5023171;28;20478;-87
2022/09/22 09:27:27;;;;;;;3.73;1.40;;;10.00;99.90;;;10.70;100.00;98766.00;5026314;28;20976;-89
2022/09/22 09:30:07;;;;;;;228.07;91.03;;;10.10;99.90;;;10.79;100.00;98770.22;5011318;28;20469;-90
2022/09/22 09:32:48;;;;;;;20.10;9.47;;;10.20;99.90;;;10.88;100.00;98769.19;5025839;28;20964;-89
2022/09/22 09:35:23;;;;;;;2.73;1.80;;;10.30;99.90;;;10.97;100.00;98765.53;5027525;28;20557;-89
2022/09/22 09:37:57;;;;;;;2.03;1.70;;;10.30;99.90;;;11.07;100.00;98767.97;5029768;28;20465;-89
2022/09/22 09:40:27;;;;;;;3.17;1.40;;;10.50;99.90;;;11.20;100.00;98767.38;5027813;28;20461;-89
2022/09/22 09:43:02;;;;;;;2.23;1.60;;;10.70;99.90;;;11.32;100.00;98756.34;5028017;28;20468;-89
2022/09/22 09:45:43;;;;;;;3.63;1.60;;;10.90;99.90;;;11.42;100.00;98759.53;5032594;28;20526;-89
2022/09/22 09:48:26;;;;;;;6.30;1.60;;;10.90;99.90;;;11.52;100.00;98760.09;5025327;28;20469;-88
2022/09/22 09:50:55;;;;;;;8.23;1.30;;;11.00;99.90;;;11.63;100.00;98759.69;5024802;28;20489;-90
2022/09/22 09:53:33;;;;;;;1.70;1.40;;;11.10;99.90;;;11.77;100.00;98752.09;5025326;28;20592;-89
2022/09/22 09:56:24;;;;;;;3.03;1.27;;;11.30;99.90;;;11.87;100.00;98756.09;5022780;28;20979;-88
2022/09/22 10:01:47;;;;;;;4.73;1.93;;;11.50;99.90;;;12.06;100.00;98744.28;5027227;28;20544;-89
2022/09/22 10:04:35;;;;;;;1.47;1.30;;;11.50;99.90;;;12.14;100.00;98746.03;5027372;28;20528;-88
2022/09/22 10:07:16;;;;;;;1.30;1.20;;;11.60;99.90;;;12.22;100.00;98746.75;5026436;28;20453;-88
2022/09/22 10:09:49;;;;;;;4.30;1.47;;;11.60;99.90;;;12.30;100.00;98744.03;5023232;28;20497;-89
2022/09/22 10:12:26;;;;;;;2.80;1.10;;;11.80;99.90;;;12.37;100.00;98744.13;5023044;28;20529;-89
2022/09/22 10:14:58;;;;;;;2.03;1.50;;;11.80;99.90;;;12.43;100.00;98743.41;5024748;28;20995;-89
2022/09/22 10:17:32;;;;;;;2.67;1.60;;;12.00;99.90;;;12.50;100.00;98739.88;5025182;28;21151;-88
2022/09/22 10:20:23;;;;;;;3.80;1.63;;;12.10;99.90;;;12.58;100.00;98731.91;5027507;28;20815;-88
2022/09/22 10:22:52;;;;;;;2.33;1.40;;;12.20;99.90;;;12.63;100.00;98732.16;5026212;28;20481;-89
2022/09/22 10:25:26;;;;;;;2.50;1.37;;;12.20;99.90;;;12.72;100.00;98734.69;5024120;28;20910;-89
2022/09/22 10:28:05;;;;;;;2.00;1.40;;;12.20;99.90;;;12.78;100.00;98731.31;5027832;28;20461;-89
2022/09/22 10:30:36;;;;;;;2.70;1.70;;;12.20;99.90;;;12.83;100.00;98726.34;5023206;28;20928;-89
2022/09/22 10:33:17;;;;;;;9.13;3.50;;;12.30;99.90;;;12.94;100.00;98726.69;5023043;28;20488;-89
2022/09/22 10:35:54;;;;;;;5.47;1.27;;;12.50;99.90;;;13.01;100.00;98724.16;5026708;28;20341;-88
2022/09/22 10:38:27;;;;;;;2.73;1.50;;;12.50;99.90;;;13.07;99.86;98720.78;5025726;28;20940;-89
2022/09/22 10:41:06;;;;;;;3.87;1.97;;;12.70;99.90;;;13.13;100.00;98720.03;5028710;28;20469;-87
2022/09/22 10:43:46;;;;;;;2.33;1.80;;;12.70;99.90;;;13.20;98.19;98707.78;5024796;28;20550;-89
2022/09/22 10:46:36;;;;;;;9.97;3.43;;;12.90;99.90;;;13.24;99.67;98709.06;5020665;28;20466;-89
2022/09/22 10:49:19;;;;;;;2.03;1.53;;;12.70;99.90;;;13.29;100.00;98709.31;5024728;28;20525;-88
2022/09/22 10:52:09;;;;;;;1.67;1.20;;;12.80;99.90;;;13.36;94.43;98702.28;5021992;28;21000;-89
2022/09/22 10:55:17;;;;;;;2.13;1.40;;;13.00;99.50;;;13.42;95.84;98709.44;5025028;28;20497;-89
2022/09/22 10:58:41;;;;;;;2.60;1.30;;;12.90;99.90;;;13.46;95.38;98710.69;5028514;28;20458;-89
2022/09/22 11:01:47;;;;;;;2.23;1.53;;;12.90;99.70;;;13.52;93.11;98711.72;5021345;28;20462;-89
2022/09/22 11:04:48;;;;;;;1.00;0.90;;;13.00;99.20;;;13.56;92.33;98702.47;5024688;28;20442;-89